Westwood Lakes, Florida
Current Conditions -  °F | °C
As of 11:53 AM on Tuesday 27 Jan 2015 (Local Time) from KTMB Reporting Station
Clear Clear  
Wind Chill: 67°   Ceiling: Unl
Heat Index: 67°   Visibility: 10mi
Dew Point: 37°   Wind: 14mph
Humidity: 33%   Direction: 330°NNW
Pressure: 30.08"   Gusts: NA
Location:  25.72°N, 80.37°W
Report Text: KTMB 271653Z 33012KT 10SM CLR 19/03 A3008 RMK AO2 SLP184 T01940028
Loading
Personal Weather Stations






























Interactive Weather Map New forecast layout! Learn more

10-Day Weather Forecast

Advertisements
Track Severe Weather on mobile